Galesburg, IL (61401)

3:38 PM CST on February 11, 2016 (GMT -0600)
N9VPV | | Change Station
CLOSE
Current Station
Personal Weather Station
Location: Galesburg, IL
Elevation: 777 ft
Nearby Weather Stations

Elev 777 ft 40.95 °N, 90.39 °W | Updated 3 minutes ago

Clear
Clear
23.9 °F
Feels Like 24 °F
N
2.0
Wind Variable Wind from NE
Gusts 2.0 mph

Today
High -- | Low -- °F
--% Chance of Precip.
Yesterday
High -- | Low -- °F
Precip. -- in
Pressure 30.28 in
Visibility 10.0 miles
Clouds Clear
Windchill 24 °F
Dew Point 7 °F
Humidity 48%
Rainfall 0.00 in
Snow Depth Not available.
7:01 AM 5:30 PM
Waxing Crescent, 14% visible
METAR KGBG 112115Z AUTO 00000KT 10SM CLR M04/M15 A3028 RMK AO2 T10451151
Pressure 30.28 in
Visibility 10.0 miles
Clouds Clear
Windchill 24 °F
Dew Point 7 °F
Humidity 48%
Rainfall 0.00 in
Snow Depth Not available.
7:01 AM 5:30 PM
Waxing Crescent, 14% visible
METAR KGBG 112115Z AUTO 00000KT 10SM CLR M04/M15 A3028 RMK AO2 T10451151

10-Day Weather Forecast

Almanac

Astronomy

Feb. 11, 2016 Rise Set
Actual Time
Civil Twilight
Nautical Twilight
Astronomical Twilight
Moon
Length of Visible Light
Length of Day
Tomorrow will be .
, % of the Moon is Illuminated

Today's Extremes

State Highs State Lows

Community

WunderPhotos

Upload Photos

1,892,164 photos uploaded!

WunderBlog® & News

Nearby

Air Quality

  Air Quality AQ Index Pollutant
Not available.

Snow Depth

Station Depth Elevation

Earthquake Activity

City Distance Mag. Time & Date
Minimum magnitude displayed is 2.5.

Coastal Water Temperatures

Place Temperature

Stations

Nearby Weather Stations

Station Location Temp. Windchill Dew Point Humidity Wind Precip. Elev Updated Type
                   

Watches & Warnings

There are currently no watches in effect.